26VA weather

Fairfax County Police Heliport
Fairfax, Virginia, United States

Public forecast

Using degrees Fahrenheit for public forecast. Weather courtesy of forecast.io.

METAR (pilot weather report)

Closest report is Washington Dulles International Airport, 6.7 nm (12.4 km) NW. Retrieved 2019/05/23 09:52 UTC (34 minutes ago):

KIAD 230952Z 18006KT 10SM SCT120 SCT140 BKN250 15/09 A3017 RMK AO2 SLP214 T01500094

TAF (pilot weather forecast)

Closest forecast is Washington Dulles International Airport, 6.7 nm (12.4 km) NW. Retrieved 2019/05/23 06:45 UTC (4 hours ago):

TAF KIAD 230542Z 2306/2412 18006KT P6SM FEW080 BKN250 FM231100 18008KT P6SM VCSH BKN050 FM231500 20010G17KT P6SM SCT050 BKN200 FM231900 23011G19KT P6SM VCTS BKN050CB FM232200 25010G18KT P6SM BKN050 FM240000 27008KT P6SM SCT060 SCT150 FM240900 30008KT P6SM FEW050 SCT250